Lockbourne, Ohio
Current Conditions -  °F | °C
As of 4:15 AM on Monday 22 Dec 2014 (Local Time) from KLCK Reporting Station
Clear Clear  
Wind Chill: -8°   Ceiling: Unl
Heat Index: -5°   Visibility: 7mi
Dew Point: -7°   Wind: 5mph
Humidity: 89%   Direction: 50°NE
Pressure: 30.08"   Gusts: NA
Location:  39.81°N, 82.97°W
Report Text: KLCK 220915Z AUTO 05004KT 7SM CLR M05/M06 A3008 RMK AO2 T10501065
Loading
Personal Weather Stations






























Interactive Weather Map New forecast layout! Learn more

10-Day Weather Forecast

Advertisements
Track Severe Weather on mobile